Time;durP1;ratioP1;P1;durP2;ratioP2;P2;SDS_P1;SDS_P2;PMS_P1;PMS_P2;Temp;Humidity;BMP_temperature;BMP_pressure;BME280_temperature;BME280_humidity;BME280_pressure;Samples;Min_cycle;Max_cycle;Signal;HPM_P1;HPM_P2
2022/03/17 00:01:18;;;;;;;30.15;18.83;;;10.50;99.80;;;;;;4928223;29;20090;-64
2022/03/17 00:03:44;;;;;;;28.02;19.25;;;10.50;99.80;;;;;;4906599;29;20398;-63
2022/03/17 00:06:13;;;;;;;27.58;18.88;;;10.50;99.80;;;;;;4897735;29;20463;-61
2022/03/17 00:08:40;;;;;;;30.63;20.05;;;10.50;99.80;;;;;;4922036;28;20062;-61
2022/03/17 00:11:06;;;;;;;27.60;19.60;;;10.50;99.90;;;;;;4915651;29;20051;-62
2022/03/17 00:13:31;;;;;;;28.38;19.10;;;10.50;99.90;;;;;;4927680;28;20101;-62
2022/03/17 00:15:57;;;;;;;30.65;19.70;;;10.50;99.90;;;;;;4914117;29;20059;-62
2022/03/17 00:18:23;;;;;;;29.48;20.13;;;10.50;99.90;;;;;;4899140;29;20054;-62
2022/03/17 00:20:49;;;;;;;31.23;20.90;;;10.50;99.90;;;;;;4910964;29;20150;-61
2022/03/17 00:23:15;;;;;;;30.60;20.13;;;10.40;99.90;;;;;;4913832;29;20422;-61
2022/03/17 00:25:41;;;;;;;29.33;19.63;;;10.40;99.90;;;;;;4907168;29;20050;-63
2022/03/17 00:28:07;;;;;;;28.90;20.23;;;10.40;99.90;;;;;;4926862;28;20109;-62
2022/03/17 00:30:33;;;;;;;27.50;19.48;;;10.40;99.90;;;;;;4912781;29;20077;-63
2022/03/17 00:32:59;;;;;;;30.20;20.63;;;10.40;99.90;;;;;;4922407;28;20996;-61
2022/03/17 00:35:44;;;;;;;28.80;19.90;;;10.40;99.90;;;;;;4922366;28;20091;-61
2022/03/17 00:38:14;;;;;;;30.33;20.05;;;10.40;99.90;;;;;;4930843;29;20133;-61
2022/03/17 00:40:42;;;;;;;34.45;21.63;;;10.40;99.90;;;;;;4926140;29;20051;-62
2022/03/17 00:43:11;;;;;;;30.23;20.25;;;10.40;99.90;;;;;;4930783;28;20079;-61
2022/03/17 00:45:37;;;;;;;30.95;19.98;;;10.40;99.90;;;;;;4908735;28;20051;-62
2022/03/17 00:48:04;;;;;;;27.55;19.42;;;10.40;99.90;;;;;;4924209;28;20051;-61
2022/03/17 00:50:31;;;;;;;30.98;20.50;;;10.40;99.90;;;;;;4922179;28;20056;-63
2022/03/17 00:52:56;;;;;;;32.38;19.88;;;10.40;99.90;;;;;;4893156;29;20054;-61
2022/03/17 00:55:22;;;;;;;33.63;20.75;;;10.40;99.90;;;;;;4899817;28;20549;-62
2022/03/17 00:57:49;;;;;;;30.40;20.70;;;10.40;99.90;;;;;;4924396;28;20055;-63
2022/03/17 01:00:16;;;;;;;30.45;20.02;;;10.40;99.90;;;;;;4923103;29;20049;-62
2022/03/17 01:02:47;;;;;;;32.25;20.40;;;10.40;99.90;;;;;;4922352;29;20098;-62
2022/03/17 01:05:13;;;;;;;31.40;21.02;;;10.40;99.90;;;;;;4924507;28;20148;-63
2022/03/17 01:07:40;;;;;;;28.15;19.77;;;10.40;99.90;;;;;;4909634;29;20075;-62
2022/03/17 01:10:08;;;;;;;30.92;20.50;;;10.40;99.90;;;;;;4911205;29;20083;-62
2022/03/17 01:12:34;;;;;;;32.45;20.50;;;10.40;99.90;;;;;;4925163;29;20445;-63
2022/03/17 01:15:01;;;;;;;29.92;20.02;;;10.40;99.90;;;;;;4924476;28;20051;-62
2022/03/17 01:17:27;;;;;;;30.27;20.65;;;10.40;99.90;;;;;;4928824;28;21765;-63
2022/03/17 01:19:53;;;;;;;31.15;21.02;;;10.40;99.90;;;;;;4924782;28;20508;-60
2022/03/17 01:22:21;;;;;;;33.47;21.70;;;10.40;99.90;;;;;;4924766;29;20210;-63
2022/03/17 01:24:49;;;;;;;34.45;22.10;;;10.40;99.90;;;;;;4923322;29;20050;-62
2022/03/17 01:27:19;;;;;;;28.48;20.30;;;10.40;99.90;;;;;;4915220;29;20047;-62
2022/03/17 01:29:49;;;;;;;28.98;20.77;;;10.40;99.90;;;;;;4893302;29;20082;-62
2022/03/17 01:32:15;;;;;;;31.63;21.33;;;10.40;99.90;;;;;;4936354;28;20043;-63
2022/03/17 01:34:40;;;;;;;31.95;21.25;;;10.40;99.90;;;;;;4909294;29;20043;-62
2022/03/17 01:37:06;;;;;;;30.02;21.15;;;10.30;99.90;;;;;;4930313;28;20051;-62
2022/03/17 01:39:32;;;;;;;34.17;21.20;;;10.40;99.90;;;;;;4931270;29;20048;-62
2022/03/17 01:41:58;;;;;;;31.20;20.65;;;10.30;99.90;;;;;;4930386;29;20130;-62
2022/03/17 01:44:25;;;;;;;36.40;21.85;;;10.30;99.90;;;;;;4924645;29;20047;-64
2022/03/17 01:49:39;;;;;;;29.25;20.75;;;10.30;99.90;;;;;;4928826;28;20051;-62
2022/03/17 01:52:06;;;;;;;30.70;20.95;;;10.30;99.90;;;;;;4926547;29;21438;-61
2022/03/17 01:54:33;;;;;;;31.35;21.33;;;10.30;99.90;;;;;;4918750;29;20089;-60
2022/03/17 01:56:59;;;;;;;30.50;21.45;;;10.30;99.90;;;;;;4931055;28;20203;-62
2022/03/17 01:59:27;;;;;;;33.17;21.40;;;10.30;99.90;;;;;;4930194;28;20098;-62
2022/03/17 02:01:56;;;;;;;33.75;21.30;;;10.30;99.90;;;;;;4926202;28;20047;-61
2022/03/17 02:04:22;;;;;;;33.47;21.65;;;10.20;99.90;;;;;;4915923;29;20051;-61
2022/03/17 02:06:48;;;;;;;31.08;21.63;;;10.20;99.90;;;;;;4911869;29;20082;-62
2022/03/17 02:09:15;;;;;;;33.53;21.80;;;10.20;99.90;;;;;;4926135;28;20274;-62
2022/03/17 02:14:26;;;;;;;30.55;21.73;;;10.20;99.90;;;;;;4924970;28;20063;-62
2022/03/17 02:16:52;;;;;;;32.00;21.85;;;10.20;99.90;;;;;;4927826;28;20099;-62
2022/03/17 02:19:21;;;;;;;30.65;21.23;;;10.30;99.90;;;;;;4930569;28;20062;-61
2022/03/17 02:21:48;;;;;;;31.90;21.92;;;10.30;99.90;;;;;;4931663;28;20046;-62
2022/03/17 02:27:00;;;;;;;32.42;21.35;;;10.30;99.90;;;;;;4924436;29;20126;-62
2022/03/17 02:29:26;;;;;;;29.67;21.02;;;10.30;99.90;;;;;;4930510;28;20043;-61
2022/03/17 02:31:53;;;;;;;30.42;21.30;;;10.30;99.90;;;;;;4926317;29;20048;-62
2022/03/17 02:34:19;;;;;;;31.50;21.90;;;10.30;99.90;;;;;;4929899;28;20110;-61
2022/03/17 02:36:50;;;;;;;36.55;21.33;;;10.30;99.90;;;;;;4931624;29;20043;-62
2022/03/17 02:39:17;;;;;;;31.40;22.02;;;10.30;99.90;;;;;;4925618;28;20134;-64
2022/03/17 02:41:43;;;;;;;33.92;22.05;;;10.30;99.90;;;;;;4926147;29;20386;-62
2022/03/17 02:44:10;;;;;;;34.15;22.85;;;10.30;99.90;;;;;;4927516;29;20054;-63
2022/03/17 02:46:36;;;;;;;32.55;21.70;;;10.30;99.90;;;;;;4927337;28;20039;-61
2022/03/17 02:49:02;;;;;;;30.70;22.17;;;10.30;99.90;;;;;;4924745;28;20058;-62
2022/03/17 02:51:28;;;;;;;30.45;21.70;;;10.30;99.90;;;;;;4943495;28;20051;-62
2022/03/17 02:53:54;;;;;;;30.95;21.65;;;10.30;99.90;;;;;;4923995;29;20060;-61
2022/03/17 02:56:20;;;;;;;32.25;21.23;;;10.30;99.90;;;;;;4914763;29;20059;-63
2022/03/17 02:58:46;;;;;;;36.03;21.88;;;10.30;99.90;;;;;;4928591;28;20055;-62
2022/03/17 03:01:11;;;;;;;34.47;22.65;;;10.30;99.90;;;;;;4926461;28;20039;-63
2022/03/17 03:03:37;;;;;;;33.17;22.15;;;10.30;99.90;;;;;;4924973;28;20044;-60
2022/03/17 03:06:03;;;;;;;30.77;22.05;;;10.30;99.90;;;;;;4928893;28;20047;-63
2022/03/17 03:08:29;;;;;;;31.33;22.42;;;10.30;99.90;;;;;;4927144;29;20498;-62
2022/03/17 03:10:57;;;;;;;31.65;21.58;;;10.30;99.90;;;;;;4929442;28;20058;-62
2022/03/17 03:13:23;;;;;;;30.40;22.15;;;10.30;99.90;;;;;;4921913;28;20552;-61
2022/03/17 03:15:50;;;;;;;32.10;22.85;;;10.30;99.90;;;;;;4928329;28;20146;-61
2022/03/17 03:18:17;;;;;;;31.05;21.70;;;10.30;99.90;;;;;;4906507;29;20476;-62
2022/03/17 03:20:43;;;;;;;29.98;21.85;;;10.30;99.90;;;;;;4906676;29;20055;-62
2022/03/17 03:23:09;;;;;;;35.92;22.90;;;10.30;99.90;;;;;;4926773;28;20058;-63
2022/03/17 03:25:35;;;;;;;31.80;23.02;;;10.40;99.90;;;;;;4934197;28;20057;-62
2022/03/17 03:28:09;;;;;;;33.42;22.27;;;10.40;99.90;;;;;;4923428;29;20047;-61
2022/03/17 03:30:36;;;;;;;31.38;22.10;;;10.40;99.90;;;;;;4925570;29;20043;-63
2022/03/17 03:33:03;;;;;;;32.63;22.75;;;10.40;99.90;;;;;;4922319;29;20051;-61
2022/03/17 03:38:21;;;;;;;36.00;23.50;;;10.40;99.90;;;;;;4906197;29;20533;-61
2022/03/17 03:40:47;;;;;;;33.42;23.77;;;10.40;99.90;;;;;;4915535;29;20055;-62
2022/03/17 03:43:14;;;;;;;32.67;23.92;;;10.50;99.90;;;;;;4908871;29;20094;-61
2022/03/17 03:45:39;;;;;;;34.25;23.67;;;10.50;99.90;;;;;;4912657;29;20048;-63
2022/03/17 03:48:05;;;;;;;33.47;23.55;;;10.50;99.90;;;;;;4928245;29;20378;-61
2022/03/17 03:50:31;;;;;;;33.88;23.58;;;10.50;99.90;;;;;;4924850;28;20055;-61
2022/03/17 03:52:58;;;;;;;36.08;24.70;;;10.50;99.90;;;;;;4927714;28;20055;-62
2022/03/17 03:55:23;;;;;;;33.05;23.55;;;10.50;99.90;;;;;;4904737;29;20197;-63
2022/03/17 03:57:50;;;;;;;33.42;23.90;;;10.60;99.90;;;;;;4915098;29;20055;-61
2022/03/17 04:00:27;;;;;;;33.30;23.90;;;10.60;99.90;;;;;;4927345;28;20054;-61
2022/03/17 04:02:53;;;;;;;36.45;24.50;;;10.50;99.90;;;;;;4917631;29;20596;-61
2022/03/17 04:05:25;;;;;;;31.95;23.83;;;10.60;99.90;;;;;;4912243;29;20051;-61
2022/03/17 04:07:51;;;;;;;38.30;25.20;;;10.60;99.90;;;;;;4921260;29;20051;-61
2022/03/17 04:10:17;;;;;;;35.95;25.60;;;10.50;99.90;;;;;;4914320;29;20070;-62
2022/03/17 04:12:43;;;;;;;37.08;26.10;;;10.50;99.90;;;;;;4924094;28;20183;-61
2022/03/17 04:15:09;;;;;;;39.85;26.80;;;10.50;99.90;;;;;;4909714;29;20063;-61
2022/03/17 04:17:35;;;;;;;37.90;27.83;;;10.40;99.90;;;;;;4909425;28;20065;-61
2022/03/17 04:20:01;;;;;;;38.25;28.38;;;10.40;99.90;;;;;;4924067;28;20051;-62
2022/03/17 04:22:27;;;;;;;41.20;29.50;;;10.30;99.90;;;;;;4925025;28;20062;-60
2022/03/17 04:24:53;;;;;;;42.03;30.08;;;10.20;99.90;;;;;;4923978;28;20130;-60
2022/03/17 04:27:19;;;;;;;43.92;29.17;;;10.20;99.90;;;;;;4897181;28;20174;-61
2022/03/17 04:29:45;;;;;;;42.38;29.27;;;10.10;99.90;;;;;;4925070;28;20050;-62
2022/03/17 04:32:11;;;;;;;44.25;30.35;;;10.10;99.90;;;;;;4924135;28;20046;-62
2022/03/17 04:34:36;;;;;;;46.80;32.03;;;10.00;99.90;;;;;;4925262;29;20505;-62
2022/03/17 04:37:02;;;;;;;45.28;30.42;;;10.00;99.90;;;;;;4923580;29;20054;-60
2022/03/17 04:39:28;;;;;;;46.85;32.95;;;9.90;99.90;;;;;;4925556;29;20616;-60
2022/03/17 04:41:54;;;;;;;45.25;32.45;;;9.90;99.90;;;;;;4924460;29;21270;-60
2022/03/17 04:44:20;;;;;;;45.65;32.38;;;9.90;99.90;;;;;;4907136;29;20078;-60
2022/03/17 04:46:46;;;;;;;47.97;34.13;;;9.80;99.90;;;;;;4924146;29;20193;-61
2022/03/17 04:49:13;;;;;;;49.72;33.88;;;9.80;99.90;;;;;;4923543;28;20059;-62
2022/03/17 04:51:39;;;;;;;47.28;33.30;;;9.70;99.90;;;;;;4929795;28;20142;-62
2022/03/17 04:54:06;;;;;;;50.15;33.53;;;9.70;99.90;;;;;;4922246;28;20760;-62
2022/03/17 04:56:32;;;;;;;50.35;34.17;;;9.70;99.90;;;;;;4923990;28;20138;-62
2022/03/17 04:58:58;;;;;;;53.92;36.72;;;9.70;99.90;;;;;;4937805;28;20052;-61
2022/03/17 05:01:24;;;;;;;55.47;37.05;;;9.60;99.90;;;;;;4924308;29;20106;-61
2022/03/17 05:03:49;;;;;;;53.00;35.53;;;9.60;99.90;;;;;;4921098;29;20054;-61
2022/03/17 05:06:16;;;;;;;53.65;36.78;;;9.60;99.90;;;;;;4940232;28;20521;-61
2022/03/17 05:08:42;;;;;;;61.28;38.30;;;9.60;99.90;;;;;;4922864;28;20058;-61
2022/03/17 05:11:09;;;;;;;53.00;35.38;;;9.50;99.90;;;;;;4927465;28;20836;-62
2022/03/17 05:13:36;;;;;;;49.47;32.42;;;9.50;99.90;;;;;;4929535;29;20047;-62
2022/03/17 05:16:04;;;;;;;42.53;25.70;;;9.50;99.90;;;;;;4940779;28;20577;-62
2022/03/17 05:18:30;;;;;;;24.30;17.63;;;9.50;99.90;;;;;;4925368;28;20086;-60
2022/03/17 05:20:56;;;;;;;20.70;15.52;;;9.50;99.90;;;;;;4942737;28;20459;-62
2022/03/17 05:23:22;;;;;;;12.85;10.10;;;9.50;99.90;;;;;;4914330;29;20045;-62
2022/03/17 05:25:49;;;;;;;11.52;8.82;;;9.40;99.90;;;;;;4927566;28;20058;-61
2022/03/17 05:28:16;;;;;;;10.27;8.68;;;9.30;99.90;;;;;;4929498;28;20062;-60
2022/03/17 05:30:43;;;;;;;10.30;8.60;;;9.20;99.90;;;;;;4932464;28;20220;-62
2022/03/17 05:33:11;;;;;;;12.02;9.00;;;9.10;99.90;;;;;;4930140;29;20047;-61
2022/03/17 05:35:41;;;;;;;11.63;8.68;;;9.10;99.90;;;;;;4932808;28;20047;-61
2022/03/17 05:38:07;;;;;;;10.90;8.57;;;9.00;99.90;;;;;;4944924;28;20161;-61
2022/03/17 05:40:33;;;;;;;9.82;8.13;;;8.90;99.90;;;;;;4936199;28;20486;-62
2022/03/17 05:43:01;;;;;;;10.52;7.57;;;8.90;99.90;;;;;;4907992;29;20087;-62
2022/03/17 05:45:28;;;;;;;10.60;7.72;;;8.80;99.90;;;;;;4924218;29;20082;-63
2022/03/17 05:48:00;;;;;;;12.35;7.97;;;8.80;99.90;;;;;;4924164;28;20054;-61
2022/03/17 05:50:46;;;;;;;11.85;8.40;;;8.80;99.90;;;;;;4931069;28;20777;-62
2022/03/17 05:53:12;;;;;;;14.23;9.60;;;8.70;99.90;;;;;;4923741;29;20046;-61
2022/03/17 05:55:37;;;;;;;16.13;9.90;;;8.70;99.90;;;;;;4922567;29;20706;-61
2022/03/17 05:58:04;;;;;;;22.25;12.57;;;8.60;99.90;;;;;;4922467;28;20051;-63
2022/03/17 06:00:31;;;;;;;19.85;12.20;;;8.60;99.90;;;;;;4923862;28;20058;-61
2022/03/17 06:02:58;;;;;;;25.02;12.73;;;8.60;99.90;;;;;;4909050;29;20138;-62
2022/03/17 06:05:25;;;;;;;22.75;12.13;;;8.60;99.90;;;;;;4913532;29;20478;-61
2022/03/17 06:07:54;;;;;;;23.92;10.68;;;8.50;99.90;;;;;;4931054;28;20482;-61
2022/03/17 06:10:23;;;;;;;19.42;9.98;;;8.50;99.90;;;;;;4911403;29;20813;-62
2022/03/17 06:12:51;;;;;;;21.77;9.20;;;8.40;99.90;;;;;;4922404;29;20043;-63
2022/03/17 06:15:19;;;;;;;19.58;9.20;;;8.40;99.90;;;;;;4925032;29;20059;-62
2022/03/17 06:17:49;;;;;;;21.95;7.93;;;8.30;99.90;;;;;;4895948;29;20043;-62
2022/03/17 06:20:17;;;;;;;20.95;7.82;;;8.30;99.90;;;;;;4924235;28;20043;-62
2022/03/17 06:22:46;;;;;;;19.27;6.95;;;8.30;99.90;;;;;;4920370;29;21823;-61
2022/03/17 06:25:15;;;;;;;16.02;6.28;;;8.30;99.90;;;;;;4923037;29;20121;-62
2022/03/17 06:27:43;;;;;;;20.08;5.75;;;8.20;99.90;;;;;;4923781;28;20645;-62
2022/03/17 06:30:12;;;;;;;14.23;5.57;;;8.20;99.90;;;;;;4919794;28;20501;-62
2022/03/17 06:32:39;;;;;;;13.32;5.03;;;8.20;99.90;;;;;;4925325;28;20142;-62
2022/03/17 06:35:17;;;;;;;19.63;5.85;;;8.20;99.90;;;;;;4928876;29;20047;-61
2022/03/17 06:37:52;;;;;;;19.65;5.78;;;8.10;99.90;;;;;;4931226;28;20054;-60
2022/03/17 06:40:19;;;;;;;19.25;6.13;;;8.10;99.90;;;;;;4932220;28;20051;-62
2022/03/17 06:42:46;;;;;;;12.60;4.45;;;8.10;99.90;;;;;;4930258;28;21061;-62
2022/03/17 06:45:12;;;;;;;10.35;3.85;;;8.10;99.90;;;;;;4921900;29;20059;-60
2022/03/17 06:47:41;;;;;;;10.52;4.22;;;8.10;99.90;;;;;;4928690;29;20063;-62
2022/03/17 06:50:08;;;;;;;15.65;4.45;;;8.10;99.90;;;;;;4934453;28;20052;-61
2022/03/17 06:52:34;;;;;;;17.45;4.15;;;8.10;99.90;;;;;;4932808;28;20047;-61
2022/03/17 06:55:00;;;;;;;15.95;3.70;;;8.10;99.90;;;;;;4938273;29;20383;-61
2022/03/17 06:57:26;;;;;;;10.55;3.20;;;8.00;99.90;;;;;;4916042;29;20459;-62
2022/03/17 06:59:52;;;;;;;11.40;3.10;;;8.10;99.90;;;;;;4915897;29;20054;-60
2022/03/17 07:02:19;;;;;;;14.77;3.10;;;8.00;99.90;;;;;;4927560;28;20624;-62
2022/03/17 07:04:45;;;;;;;16.88;2.92;;;8.00;99.90;;;;;;4915058;28;20055;-60
2022/03/17 07:07:11;;;;;;;11.93;2.17;;;8.00;99.90;;;;;;4927696;28;20802;-60
2022/03/17 07:09:38;;;;;;;9.55;2.50;;;7.90;99.90;;;;;;4925847;28;20055;-65
2022/03/17 07:12:05;;;;;;;9.95;2.65;;;7.90;99.90;;;;;;4928751;29;20193;-63
2022/03/17 07:14:31;;;;;;;11.70;2.53;;;7.90;99.90;;;;;;4903336;29;20087;-64
2022/03/17 07:16:57;;;;;;;13.38;2.30;;;7.90;99.90;;;;;;4935053;28;20073;-63
2022/03/17 07:19:23;;;;;;;12.73;2.50;;;7.90;99.90;;;;;;4935062;28;20552;-64
2022/03/17 07:21:48;;;;;;;6.85;2.03;;;7.90;99.90;;;;;;4933323;28;20078;-66
2022/03/17 07:24:15;;;;;;;16.00;2.83;;;7.90;99.90;;;;;;4935107;29;20146;-59
2022/03/17 07:26:40;;;;;;;12.18;3.03;;;7.90;99.90;;;;;;4939503;28;20040;-59
2022/03/17 07:29:07;;;;;;;9.68;2.40;;;7.80;99.90;;;;;;4935687;29;20111;-61
2022/03/17 07:31:34;;;;;;;15.68;3.13;;;7.80;99.90;;;;;;4920642;29;20043;-61
2022/03/17 07:34:00;;;;;;;14.70;2.35;;;7.80;99.90;;;;;;4942309;29;20082;-61
2022/03/17 07:36:27;;;;;;;13.80;2.60;;;7.80;99.90;;;;;;4942490;28;20377;-61
2022/03/17 07:38:57;;;;;;;12.18;2.50;;;7.80;99.90;;;;;;4931419;28;20142;-60
2022/03/17 07:41:24;;;;;;;16.88;2.53;;;7.80;99.90;;;;;;4937742;29;20179;-60
2022/03/17 07:43:51;;;;;;;13.27;2.55;;;7.80;99.90;;;;;;4952759;28;20051;-59
2022/03/17 07:46:17;;;;;;;14.57;2.88;;;7.80;99.90;;;;;;4935272;28;20051;-59
2022/03/17 07:48:43;;;;;;;21.55;2.85;;;7.80;99.90;;;;;;4936464;28;20047;-61
2022/03/17 07:51:09;;;;;;;12.00;2.60;;;7.80;99.90;;;;;;4936350;28;20048;-59
2022/03/17 07:53:36;;;;;;;23.38;3.10;;;7.80;99.90;;;;;;4934841;29;20110;-60
2022/03/17 07:56:03;;;;;;;18.73;2.85;;;7.80;99.90;;;;;;4937375;28;20050;-62
2022/03/17 07:58:29;;;;;;;13.27;2.50;;;7.80;99.90;;;;;;4937537;29;20051;-61
2022/03/17 08:00:57;;;;;;;15.10;2.50;;;7.80;99.90;;;;;;4934792;28;20800;-60
2022/03/17 08:03:23;;;;;;;12.55;2.05;;;7.80;99.90;;;;;;4932223;29;20050;-59
2022/03/17 08:05:50;;;;;;;17.38;2.63;;;7.80;99.90;;;;;;4937435;28;20062;-59
2022/03/17 08:08:17;;;;;;;11.82;2.30;;;7.80;99.90;;;;;;4935280;29;20051;-61
2022/03/17 08:10:43;;;;;;;11.68;2.30;;;7.90;99.90;;;;;;4934438;28;20059;-60
2022/03/17 08:13:09;;;;;;;16.33;2.50;;;7.80;99.90;;;;;;4939515;28;20532;-59
2022/03/17 08:15:39;;;;;;;15.95;2.83;;;7.80;99.90;;;;;;4934707;28;20071;-59
2022/03/17 08:18:06;;;;;;;17.75;3.00;;;7.80;99.90;;;;;;4935297;28;20043;-62
2022/03/17 08:20:32;;;;;;;19.88;3.58;;;7.80;99.90;;;;;;4937332;28;20051;-61
2022/03/17 08:22:58;;;;;;;18.92;3.85;;;7.80;99.90;;;;;;4933306;29;20049;-59
2022/03/17 08:25:24;;;;;;;24.45;3.13;;;7.80;99.90;;;;;;4937294;28;20051;-59
2022/03/17 08:27:50;;;;;;;21.67;3.50;;;7.80;99.90;;;;;;4936830;28;20378;-60
2022/03/17 08:30:16;;;;;;;17.40;3.33;;;7.80;99.90;;;;;;4933903;29;20062;-59
2022/03/17 08:32:42;;;;;;;21.40;3.40;;;7.80;99.90;;;;;;4933209;28;20113;-61
2022/03/17 08:35:10;;;;;;;23.15;3.10;;;7.80;99.90;;;;;;4934925;29;20499;-58
2022/03/17 08:37:41;;;;;;;23.88;3.70;;;7.80;99.90;;;;;;4925076;29;20122;-58
2022/03/17 08:40:07;;;;;;;17.50;3.17;;;7.80;99.90;;;;;;4935124;29;20055;-59
2022/03/17 08:42:33;;;;;;;12.95;2.58;;;7.80;99.90;;;;;;4934197;29;20154;-58
2022/03/17 08:44:59;;;;;;;10.57;2.35;;;7.90;99.90;;;;;;4936428;28;20043;-60
2022/03/17 08:50:09;;;;;;;13.93;2.60;;;7.80;99.90;;;;;;4934731;28;20126;-58
2022/03/17 08:52:35;;;;;;;17.92;2.33;;;7.70;99.90;;;;;;4934282;29;20072;-59
2022/03/17 08:55:02;;;;;;;16.25;2.40;;;7.70;99.90;;;;;;4932827;29;20502;-59
2022/03/17 08:57:28;;;;;;;20.33;2.72;;;7.70;99.90;;;;;;4933911;28;20047;-58
2022/03/17 08:59:54;;;;;;;18.42;3.00;;;7.70;99.90;;;;;;4933443;28;20062;-60
2022/03/17 09:02:20;;;;;;;20.27;2.40;;;7.70;99.90;;;;;;4936480;28;20054;-58
2022/03/17 09:04:46;;;;;;;17.10;2.72;;;7.70;99.90;;;;;;4938385;29;20047;-58
2022/03/17 09:07:12;;;;;;;19.85;2.30;;;7.70;99.90;;;;;;4934528;29;20686;-59
2022/03/17 09:09:41;;;;;;;12.73;1.77;;;7.80;99.90;;;;;;4937358;28;20086;-59
2022/03/17 09:12:08;;;;;;;14.43;2.50;;;7.90;99.90;;;;;;4940385;28;20098;-61
2022/03/17 09:14:40;;;;;;;11.07;2.67;;;7.90;99.90;;;;;;4933527;28;20039;-58
2022/03/17 09:17:06;;;;;;;11.85;2.65;;;8.00;99.90;;;;;;4934992;28;20063;-59
2022/03/17 09:19:32;;;;;;;22.10;3.08;;;8.00;99.90;;;;;;4939857;28;20051;-58
2022/03/17 09:21:58;;;;;;;15.38;3.15;;;7.90;99.90;;;;;;4935946;29;20110;-58
2022/03/17 09:24:25;;;;;;;15.98;3.03;;;7.90;99.90;;;;;;4934354;28;20040;-59
2022/03/17 09:26:51;;;;;;;22.13;3.38;;;7.90;99.90;;;;;;4936110;29;20062;-58
2022/03/17 09:29:16;;;;;;;17.90;2.22;;;7.90;99.90;;;;;;4925858;29;20052;-60
2022/03/17 09:31:43;;;;;;;19.65;3.20;;;8.00;99.90;;;;;;4938349;29;20454;-59
2022/03/17 09:34:09;;;;;;;13.38;2.58;;;8.10;99.90;;;;;;4917928;29;20055;-59
2022/03/17 09:36:35;;;;;;;9.38;2.10;;;8.20;99.90;;;;;;4933568;29;20098;-59
2022/03/17 09:41:45;;;;;;;16.17;2.63;;;8.30;99.90;;;;;;4920786;29;20457;-59
2022/03/17 09:44:11;;;;;;;15.25;2.63;;;8.40;99.90;;;;;;4933714;29;20051;-58
2022/03/17 09:46:41;;;;;;;14.80;2.33;;;8.20;99.90;;;;;;4935453;28;20490;-61
2022/03/17 09:49:07;;;;;;;17.63;3.33;;;8.40;99.90;;;;;;4932414;28;20056;-59
2022/03/17 09:51:34;;;;;;;18.95;3.20;;;8.50;99.90;;;;;;4934909;28;20058;-59
2022/03/17 09:54:00;;;;;;;13.30;2.58;;;8.50;99.90;;;;;;4933007;29;20054;-59
2022/03/17 09:56:27;;;;;;;12.38;2.63;;;8.50;99.90;;;;;;4935039;28;20055;-58
2022/03/17 09:58:55;;;;;;;19.48;3.00;;;8.60;99.90;;;;;;4935624;29;20055;-58
2022/03/17 10:01:22;;;;;;;17.65;3.00;;;8.60;99.90;;;;;;4936214;29;20051;-58
2022/03/17 10:03:51;;;;;;;16.63;3.20;;;8.70;99.90;;;;;;4938397;28;20065;-58
2022/03/17 10:06:17;;;;;;;16.30;2.80;;;8.80;99.90;;;;;;4939490;29;20577;-59
2022/03/17 10:08:45;;;;;;;21.15;2.63;;;8.90;99.90;;;;;;4938664;28;20130;-58
2022/03/17 10:11:18;;;;;;;18.58;2.75;;;9.00;99.90;;;;;;4937950;28;20047;-59
2022/03/17 10:13:46;;;;;;;13.75;2.38;;;9.10;99.90;;;;;;4936106;29;20047;-59
2022/03/17 10:16:18;;;;;;;16.73;3.08;;;9.20;99.90;;;;;;4934908;29;20119;-60
2022/03/17 10:18:48;;;;;;;12.68;2.67;;;9.40;99.90;;;;;;4936506;29;20087;-59
2022/03/17 10:21:26;;;;;;;18.25;2.65;;;9.40;99.90;;;;;;4945392;28;20051;-60
2022/03/17 10:23:56;;;;;;;14.23;2.67;;;9.50;99.90;;;;;;4918462;29;20042;-61
2022/03/17 10:26:32;;;;;;;16.02;2.80;;;9.60;99.90;;;;;;4939383;29;20548;-58
2022/03/17 10:29:12;;;;;;;14.93;2.78;;;9.70;99.90;;;;;;4936313;28;20087;-59
2022/03/17 10:31:51;;;;;;;17.63;3.03;;;9.70;99.90;;;;;;4936181;29;20090;-58
2022/03/17 10:34:18;;;;;;;15.13;2.55;;;9.80;99.90;;;;;;4935174;28;20577;-57
2022/03/17 10:36:48;;;;;;;14.85;2.70;;;9.90;99.90;;;;;;4936781;29;20051;-58
2022/03/17 10:39:15;;;;;;;21.90;3.15;;;10.10;99.90;;;;;;4937748;29;20110;-61
2022/03/17 10:41:46;;;;;;;19.20;3.03;;;10.30;99.90;;;;;;4936713;28;20058;-57
2022/03/17 10:44:13;;;;;;;15.85;2.65;;;10.40;99.90;;;;;;4937764;29;20130;-58
2022/03/17 10:46:53;;;;;;;14.63;3.15;;;10.60;99.90;;;;;;4936434;28;20561;-58
2022/03/17 10:49:19;;;;;;;13.57;2.92;;;10.70;99.90;;;;;;4934556;28;20047;-60
2022/03/17 10:51:45;;;;;;;12.13;2.78;;;10.80;99.90;;;;;;4939141;28;21012;-60
2022/03/17 10:54:11;;;;;;;17.25;3.50;;;10.90;99.90;;;;;;4935292;29;20186;-60
2022/03/17 10:56:38;;;;;;;18.77;2.92;;;10.80;99.90;;;;;;4936399;29;20184;-61
2022/03/17 10:59:07;;;;;;;22.88;3.22;;;10.90;99.90;;;;;;4935393;28;20059;-59
2022/03/17 11:01:42;;;;;;;15.52;2.60;;;10.90;99.90;;;;;;4934888;29;20052;-58
2022/03/17 11:04:08;;;;;;;12.20;2.70;;;11.00;99.90;;;;;;4936179;29;20083;-59
2022/03/17 11:06:34;;;;;;;14.75;2.63;;;10.90;99.90;;;;;;4935455;28;20174;-58
2022/03/17 11:09:01;;;;;;;15.80;2.80;;;11.00;99.90;;;;;;4953480;28;20480;-58
2022/03/17 11:11:30;;;;;;;12.15;2.47;;;11.00;99.70;;;;;;4935859;29;20059;-58
2022/03/17 11:13:57;;;;;;;12.60;2.50;;;10.80;99.10;;;;;;4936557;29;20070;-61
2022/03/17 11:16:32;;;;;;;15.10;2.95;;;10.60;98.50;;;;;;4935142;29;20059;-58
2022/03/17 11:18:58;;;;;;;9.82;2.45;;;10.60;99.20;;;;;;4934540;28;20047;-59
2022/03/17 11:21:30;;;;;;;9.77;2.13;;;10.70;99.60;;;;;;4936346;29;20455;-58
2022/03/17 11:24:05;;;;;;;19.50;3.25;;;10.70;99.10;;;;;;4935973;29;20047;-58
2022/03/17 11:26:39;;;;;;;12.65;2.80;;;10.90;99.20;;;;;;4935355;29;20398;-59
2022/03/17 11:29:09;;;;;;;14.18;2.65;;;11.20;98.70;;;;;;4932406;29;20134;-58
2022/03/17 11:31:58;;;;;;;15.63;3.00;;;11.40;97.40;;;;;;4934641;28;20463;-60
2022/03/17 11:34:47;;;;;;;20.15;3.17;;;11.30;96.30;;;;;;4935785;28;20054;-59
2022/03/17 11:37:19;;;;;;;13.23;2.78;;;11.20;96.10;;;;;;4937284;29;20118;-60
2022/03/17 11:40:10;;;;;;;10.68;2.38;;;11.10;96.30;;;;;;4936269;29;20486;-60
2022/03/17 11:42:37;;;;;;;18.67;2.90;;;11.10;96.50;;;;;;4935261;29;20051;-59
2022/03/17 11:45:15;;;;;;;16.38;2.47;;;11.20;96.30;;;;;;4937218;28;20106;-59
2022/03/17 11:47:50;;;;;;;18.23;3.10;;;11.30;96.50;;;;;;4918067;28;20083;-58
2022/03/17 11:50:36;;;;;;;14.13;2.28;;;11.40;96.20;;;;;;4938927;28;20039;-58
2022/03/17 11:53:12;;;;;;;10.32;2.47;;;11.50;94.80;;;;;;4935992;28;20075;-58
2022/03/17 11:55:47;;;;;;;16.08;2.40;;;11.60;95.10;;;;;;4943784;28;20561;-59
2022/03/17 11:58:46;;;;;;;11.90;2.38;;;11.80;94.80;;;;;;4934100;29;20044;-59
2022/03/17 12:01:13;;;;;;;12.15;2.47;;;12.00;93.60;;;;;;4938302;29;20405;-58
2022/03/17 12:03:47;;;;;;;10.20;2.30;;;12.20;93.20;;;;;;4936581;29;20053;-58
2022/03/17 12:06:13;;;;;;;8.68;2.40;;;12.40;91.50;;;;;;4934468;29;20405;-61
2022/03/17 12:08:41;;;;;;;10.98;2.35;;;12.40;90.50;;;;;;4937384;29;20054;-61
2022/03/17 12:11:13;;;;;;;9.98;2.05;;;12.50;90.20;;;;;;4942124;29;20394;-58
2022/03/17 12:13:40;;;;;;;17.13;2.45;;;12.60;89.30;;;;;;4934306;28;20054;-59
2022/03/17 12:16:07;;;;;;;14.90;2.83;;;12.60;87.70;;;;;;4947378;28;20506;-59
2022/03/17 12:19:00;;;;;;;11.80;3.05;;;12.60;87.00;;;;;;4934612;28;20050;-58
2022/03/17 12:21:45;;;;;;;;;;;12.70;88.30;;;;;;4939718;28;20074;-58
2022/03/17 12:24:10;;;;;;;10.82;2.55;;;12.80;86.60;;;;;;4935567;28;20268;-61
2022/03/17 12:26:36;;;;;;;14.73;3.05;;;12.80;86.60;;;;;;4934451;29;20062;-59
2022/03/17 12:29:03;;;;;;;9.38;2.30;;;12.80;85.90;;;;;;4934433;29;20611;-59
2022/03/17 12:31:29;;;;;;;12.52;2.50;;;12.80;84.10;;;;;;4925638;29;20110;-58
2022/03/17 12:33:55;;;;;;;11.50;2.45;;;12.80;83.20;;;;;;4934195;28;20047;-59
2022/03/17 12:36:22;;;;;;;12.48;2.65;;;12.90;83.40;;;;;;4934472;29;20046;-59
2022/03/17 12:38:49;;;;;;;11.35;2.30;;;13.00;82.90;;;;;;4936236;28;20688;-59
2022/03/17 12:41:15;;;;;;;10.20;2.42;;;13.10;82.20;;;;;;4933017;29;20170;-59
2022/03/17 12:43:41;;;;;;;11.27;3.28;;;13.20;80.60;;;;;;4933653;29;20047;-59
2022/03/17 12:46:07;;;;;;;16.48;2.72;;;13.30;81.70;;;;;;4936938;29;20047;-58
2022/03/17 12:48:34;;;;;;;12.85;2.15;;;13.40;81.90;;;;;;4935475;28;20062;-58
2022/03/17 12:51:05;;;;;;;18.38;2.95;;;13.50;80.60;;;;;;4936205;28;20054;-60
2022/03/17 12:53:31;;;;;;;11.98;2.42;;;13.60;78.00;;;;;;4919350;29;20439;-59
2022/03/17 12:55:57;;;;;;;15.90;2.55;;;13.70;77.70;;;;;;4900877;29;20063;-58
2022/03/17 12:58:24;;;;;;;15.07;2.75;;;13.70;77.80;;;;;;4935649;28;20083;-59